sensor_id;sensor_type;location;lat;lon;timestamp;pressure;altitude;pressure_sealevel;temperature;humidity
71915;BME280;60387;49.994;14.660;2023-04-07T00:02:00;97840.88;;;4.93;38.63
71915;BME280;60387;49.994;14.660;2023-04-07T00:04:33;97843.34;;;5.00;38.43
71915;BME280;60387;49.994;14.660;2023-04-07T00:07:06;97834.22;;;5.01;38.97
71915;BME280;60387;49.994;14.660;2023-04-07T00:09:39;97830.47;;;5.07;39.73
71915;BME280;60387;49.994;14.660;2023-04-07T00:12:13;97840.69;;;5.10;40.12
71915;BME280;60387;49.994;14.660;2023-04-07T00:14:46;97835.84;;;5.12;38.89
71915;BME280;60387;49.994;14.660;2023-04-07T00:17:19;97832.09;;;5.13;38.08
71915;BME280;60387;49.994;14.660;2023-04-07T00:19:53;97831.84;;;5.19;38.28
71915;BME280;60387;49.994;14.660;2023-04-07T00:22:26;97822.47;;;5.22;38.78
71915;BME280;60387;49.994;14.660;2023-04-07T00:24:59;97817.38;;;5.25;38.45
71915;BME280;60387;49.994;14.660;2023-04-07T00:27:33;97831.06;;;5.29;37.64
71915;BME280;60387;49.994;14.660;2023-04-07T00:30:07;97833.78;;;5.34;38.23
71915;BME280;60387;49.994;14.660;2023-04-07T00:32:40;97814.72;;;5.30;39.09
71915;BME280;60387;49.994;14.660;2023-04-07T00:35:13;97818.75;;;5.33;38.69
71915;BME280;60387;49.994;14.660;2023-04-07T00:37:47;97825.72;;;5.39;38.60
71915;BME280;60387;49.994;14.660;2023-04-07T00:40:20;97812.59;;;5.37;38.77
71915;BME280;60387;49.994;14.660;2023-04-07T00:42:53;97819.28;;;5.40;38.33
71915;BME280;60387;49.994;14.660;2023-04-07T00:45:26;97807.22;;;5.37;38.91
71915;BME280;60387;49.994;14.660;2023-04-07T00:48:00;97811.50;;;5.38;38.56
71915;BME280;60387;49.994;14.660;2023-04-07T00:50:33;97801.00;;;5.37;38.58
71915;BME280;60387;49.994;14.660;2023-04-07T00:53:07;97806.41;;;5.42;40.17
71915;BME280;60387;49.994;14.660;2023-04-07T00:55:40;97814.19;;;5.38;39.54
71915;BME280;60387;49.994;14.660;2023-04-07T00:58:14;97808.53;;;5.40;38.56
71915;BME280;60387;49.994;14.660;2023-04-07T01:01:29;97806.66;;;5.40;38.43
71915;BME280;60387;49.994;14.660;2023-04-07T01:04:08;97794.03;;;5.36;39.15
71915;BME280;60387;49.994;14.660;2023-04-07T01:06:47;97802.38;;;5.39;38.76
71915;BME280;60387;49.994;14.660;2023-04-07T01:09:29;97798.88;;;5.39;38.36
71915;BME280;60387;49.994;14.660;2023-04-07T01:12:25;97807.75;;;5.39;38.28
71915;BME280;60387;49.994;14.660;2023-04-07T01:15:08;97791.63;;;5.39;38.13
71915;BME280;60387;49.994;14.660;2023-04-07T01:17:44;97778.19;;;5.29;38.15
71915;BME280;60387;49.994;14.660;2023-04-07T01:20:22;97791.34;;;5.41;38.06
71915;BME280;60387;49.994;14.660;2023-04-07T01:23:03;97785.44;;;5.39;38.17
71915;BME280;60387;49.994;14.660;2023-04-07T01:31:27;97780.06;;;5.39;38.46
71915;BME280;60387;49.994;14.660;2023-04-07T01:34:01;97772.28;;;5.32;38.28
71915;BME280;60387;49.994;14.660;2023-04-07T01:36:36;97766.66;;;5.34;39.63
71915;BME280;60387;49.994;14.660;2023-04-07T01:39:10;97772.00;;;5.34;39.58
71915;BME280;60387;49.994;14.660;2023-04-07T01:41:44;97776.03;;;5.31;39.48
71915;BME280;60387;49.994;14.660;2023-04-07T01:44:19;97777.38;;;5.34;39.06
71915;BME280;60387;49.994;14.660;2023-04-07T01:46:53;97774.13;;;5.32;38.62
71915;BME280;60387;49.994;14.660;2023-04-07T01:49:29;97770.41;;;5.33;38.90
71915;BME280;60387;49.994;14.660;2023-04-07T01:52:03;97781.69;;;5.35;38.40
71915;BME280;60387;49.994;14.660;2023-04-07T01:54:37;97769.88;;;5.36;38.16
71915;BME280;60387;49.994;14.660;2023-04-07T01:57:11;97769.06;;;5.40;38.30
71915;BME280;60387;49.994;14.660;2023-04-07T01:59:44;97770.41;;;5.43;38.08
71915;BME280;60387;49.994;14.660;2023-04-07T02:02:18;97770.94;;;5.45;37.72
71915;BME280;60387;49.994;14.660;2023-04-07T02:07:33;97767.72;;;5.48;38.42
71915;BME280;60387;49.994;14.660;2023-04-07T02:10:12;97759.13;;;5.51;38.26
71915;BME280;60387;49.994;14.660;2023-04-07T02:12:47;97758.31;;;5.50;38.20
71915;BME280;60387;49.994;14.660;2023-04-07T02:15:21;97753.22;;;5.54;38.39
71915;BME280;60387;49.994;14.660;2023-04-07T02:17:57;97751.88;;;5.51;38.28
71915;BME280;60387;49.994;14.660;2023-04-07T02:20:32;97760.19;;;5.55;38.31
71915;BME280;60387;49.994;14.660;2023-04-07T02:23:07;97755.38;;;5.57;38.37
71915;BME280;60387;49.994;14.660;2023-04-07T02:25:41;97743.00;;;5.56;38.18
71915;BME280;60387;49.994;14.660;2023-04-07T02:28:14;97756.44;;;5.61;38.05
71915;BME280;60387;49.994;14.660;2023-04-07T02:30:47;97760.50;;;5.63;38.13
71915;BME280;60387;49.994;14.660;2023-04-07T02:33:21;97754.56;;;5.66;37.82
71915;BME280;60387;49.994;14.660;2023-04-07T02:35:54;97751.63;;;5.68;37.77
71915;BME280;60387;49.994;14.660;2023-04-07T02:38:27;97751.34;;;5.69;38.52
71915;BME280;60387;49.994;14.660;2023-04-07T02:41:00;97742.47;;;5.69;38.33
71915;BME280;60387;49.994;14.660;2023-04-07T02:43:34;97733.34;;;5.65;39.30
71915;BME280;60387;49.994;14.660;2023-04-07T02:46:07;97747.84;;;5.69;38.94
71915;BME280;60387;49.994;14.660;2023-04-07T02:48:40;97745.69;;;5.71;39.04
71915;BME280;60387;49.994;14.660;2023-04-07T02:51:13;97735.50;;;5.68;39.26
71915;BME280;60387;49.994;14.660;2023-04-07T02:53:47;97740.59;;;5.69;39.71
71915;BME280;60387;49.994;14.660;2023-04-07T02:56:20;97735.50;;;5.68;39.79
71915;BME280;60387;49.994;14.660;2023-04-07T02:58:53;97742.47;;;5.69;39.58
71915;BME280;60387;49.994;14.660;2023-04-07T03:01:27;97744.88;;;5.70;38.84
71915;BME280;60387;49.994;14.660;2023-04-07T03:04:00;97732.81;;;5.68;38.80
71915;BME280;60387;49.994;14.660;2023-04-07T03:06:33;97733.88;;;5.72;38.75
71915;BME280;60387;49.994;14.660;2023-04-07T03:09:07;97730.63;;;5.75;38.54
71915;BME280;60387;49.994;14.660;2023-04-07T03:11:40;97736.84;;;5.75;38.66
71915;BME280;60387;49.994;14.660;2023-04-07T03:14:13;97729.03;;;5.79;38.19
71915;BME280;60387;49.994;14.660;2023-04-07T03:16:46;97730.69;;;5.80;38.96
71915;BME280;60387;49.994;14.660;2023-04-07T03:19:20;97724.22;;;5.81;38.47
71915;BME280;60387;49.994;14.660;2023-04-07T03:21:53;97724.22;;;5.81;38.76
71915;BME280;60387;49.994;14.660;2023-04-07T03:24:26;97722.63;;;5.85;39.08
71915;BME280;60387;49.994;14.660;2023-04-07T03:27:00;97724.50;;;5.84;38.61
71915;BME280;60387;49.994;14.660;2023-04-07T03:29:33;97721.53;;;5.86;39.33
71915;BME280;60387;49.994;14.660;2023-04-07T03:32:06;97719.94;;;5.85;41.12
71915;BME280;60387;49.994;14.660;2023-04-07T03:34:40;97724.50;;;5.84;39.84
71915;BME280;60387;49.994;14.660;2023-04-07T03:37:13;97729.88;;;5.84;39.31
71915;BME280;60387;49.994;14.660;2023-04-07T03:39:46;97725.56;;;5.88;39.56
71915;BME280;60387;49.994;14.660;2023-04-07T03:42:19;97722.59;;;5.90;39.63
71915;BME280;60387;49.994;14.660;2023-04-07T03:44:53;97729.56;;;5.91;39.31
71915;BME280;60387;49.994;14.660;2023-04-07T03:47:26;97719.66;;;5.91;39.07
71915;BME280;60387;49.994;14.660;2023-04-07T03:50:00;97726.63;;;5.92;38.89
71915;BME280;60387;49.994;14.660;2023-04-07T03:52:33;97725.28;;;5.95;39.25
71915;BME280;60387;49.994;14.660;2023-04-07T03:55:07;97722.31;;;5.96;39.25
71915;BME280;60387;49.994;14.660;2023-04-07T03:57:40;97722.59;;;5.95;38.95
71915;BME280;60387;49.994;14.660;2023-04-07T04:00:13;97724.72;;;5.98;38.94
71915;BME280;60387;49.994;14.660;2023-04-07T04:02:47;97720.97;;;5.99;39.09
71915;BME280;60387;49.994;14.660;2023-04-07T04:05:21;97722.56;;;6.00;39.76
71915;BME280;60387;49.994;14.660;2023-04-07T04:07:54;97722.56;;;6.00;39.33
71915;BME280;60387;49.994;14.660;2023-04-07T04:10:27;97719.88;;;6.00;38.93
71915;BME280;60387;49.994;14.660;2023-04-07T04:13:00;97723.13;;;6.02;39.03
71915;BME280;60387;49.994;14.660;2023-04-07T04:15:34;97718.00;;;6.00;38.76
71915;BME280;60387;49.994;14.660;2023-04-07T04:18:07;97725.81;;;6.02;39.20
71915;BME280;60387;49.994;14.660;2023-04-07T04:20:41;97716.41;;;5.99;39.17
71915;BME280;60387;49.994;14.660;2023-04-07T04:23:14;97729.56;;;6.01;39.04
71915;BME280;60387;49.994;14.660;2023-04-07T04:25:48;97727.94;;;6.00;40.91
71915;BME280;60387;49.994;14.660;2023-04-07T04:28:21;97725.56;;;5.98;40.08
71915;BME280;60387;49.994;14.660;2023-04-07T04:30:54;97727.41;;;5.98;39.88
71915;BME280;60387;49.994;14.660;2023-04-07T04:33:27;97726.34;;;5.99;39.77
71915;BME280;60387;49.994;14.660;2023-04-07T04:36:01;97733.31;;;6.00;39.56
71915;BME280;60387;49.994;14.660;2023-04-07T04:38:34;97732.81;;;5.98;39.43
71915;BME280;60387;49.994;14.660;2023-04-07T04:41:07;97740.31;;;6.01;40.23
71915;BME280;60387;49.994;14.660;2023-04-07T04:43:41;97736.00;;;6.00;40.18
71915;BME280;60387;49.994;14.660;2023-04-07T04:46:14;97735.50;;;6.03;40.11
71915;BME280;60387;49.994;14.660;2023-04-07T04:48:47;97734.66;;;6.02;39.32
71915;BME280;60387;49.994;14.660;2023-04-07T04:51:20;97723.66;;;5.99;39.29
71915;BME280;60387;49.994;14.660;2023-04-07T04:53:54;97733.84;;;6.07;39.26
71915;BME280;60387;49.994;14.660;2023-04-07T04:56:27;97731.69;;;6.09;39.30
71915;BME280;60387;49.994;14.660;2023-04-07T04:59:02;97728.75;;;6.10;39.04
71915;BME280;60387;49.994;14.660;2023-04-07T05:01:35;97732.78;;;6.13;39.14
71915;BME280;60387;49.994;14.660;2023-04-07T05:04:08;97731.69;;;6.14;39.00
71915;BME280;60387;49.994;14.660;2023-04-07T05:06:42;97723.91;;;6.17;39.13
71915;BME280;60387;49.994;14.660;2023-04-07T05:09:16;97730.06;;;6.22;39.31
71915;BME280;60387;49.994;14.660;2023-04-07T05:11:49;97726.03;;;6.25;38.86
71915;BME280;60387;49.994;14.660;2023-04-07T05:14:22;97721.44;;;6.30;38.90
71915;BME280;60387;49.994;14.660;2023-04-07T05:16:55;97717.91;;;6.35;38.75
71915;BME280;60387;49.994;14.660;2023-04-07T05:19:29;97709.53;;;6.41;39.70
71915;BME280;60387;49.994;14.660;2023-04-07T05:22:02;97718.66;;;6.50;39.62
71915;BME280;60387;49.994;14.660;2023-04-07T05:24:35;97712.72;;;6.58;39.32
71915;BME280;60387;49.994;14.660;2023-04-07T05:27:09;97718.03;;;6.73;39.40
71915;BME280;60387;49.994;14.660;2023-04-07T05:29:42;97709.63;;;6.85;38.95
71915;BME280;60387;49.994;14.660;2023-04-07T05:32:18;97716.25;;;7.02;38.97
71915;BME280;60387;49.994;14.660;2023-04-07T05:34:51;97716.13;;;7.22;38.78
71915;BME280;60387;49.994;14.660;2023-04-07T05:37:27;97723.56;;;7.40;38.78
71915;BME280;60387;49.994;14.660;2023-04-07T05:40:01;97711.59;;;7.51;38.36
71915;BME280;60387;49.994;14.660;2023-04-07T05:42:34;97715.28;;;7.65;38.46
71915;BME280;60387;49.994;14.660;2023-04-07T05:45:08;97709.28;;;7.73;38.84
71915;BME280;60387;49.994;14.660;2023-04-07T05:47:42;97715.09;;;7.85;38.17
71915;BME280;60387;49.994;14.660;2023-04-07T05:50:16;97713.63;;;7.98;38.20
71915;BME280;60387;49.994;14.660;2023-04-07T05:52:52;97712.41;;;8.09;38.44
71915;BME280;60387;49.994;14.660;2023-04-07T05:55:26;97722.00;;;8.25;38.66
71915;BME280;60387;49.994;14.660;2023-04-07T05:57:59;97722.97;;;8.34;37.59
71915;BME280;60387;49.994;14.660;2023-04-07T06:00:32;97710.13;;;8.49;38.27
71915;BME280;60387;49.994;14.660;2023-04-07T06:03:05;97714.91;;;8.76;38.01
71915;BME280;60387;49.994;14.660;2023-04-07T06:05:38;97715.31;;;9.06;38.26
71915;BME280;60387;49.994;14.660;2023-04-07T06:08:12;97723.13;;;9.44;38.00
71915;BME280;60387;49.994;14.660;2023-04-07T06:10:45;97717.28;;;9.88;37.59
71915;BME280;60387;49.994;14.660;2023-04-07T06:13:18;97729.25;;;10.32;37.94
71915;BME280;60387;49.994;14.660;2023-04-07T06:15:54;97718.63;;;10.76;36.66
71915;BME280;60387;49.994;14.660;2023-04-07T06:18:27;97725.19;;;11.11;36.42
71915;BME280;60387;49.994;14.660;2023-04-07T06:21:00;97716.00;;;11.34;36.51
71915;BME280;60387;49.994;14.660;2023-04-07T06:23:34;97707.53;;;11.49;35.67
71915;BME280;60387;49.994;14.660;2023-04-07T06:26:10;97701.91;;;11.59;35.88
71915;BME280;60387;49.994;14.660;2023-04-07T06:28:44;97703.06;;;11.66;35.56
71915;BME280;60387;49.994;14.660;2023-04-07T06:31:17;97701.06;;;11.72;35.82
71915;BME280;60387;49.994;14.660;2023-04-07T06:33:50;97706.34;;;11.77;35.34
71915;BME280;60387;49.994;14.660;2023-04-07T06:36:24;97701.91;;;11.81;35.65
71915;BME280;60387;49.994;14.660;2023-04-07T06:38:57;97706.81;;;11.79;34.91
71915;BME280;60387;49.994;14.660;2023-04-07T06:41:30;97701.22;;;11.75;35.50
71915;BME280;60387;49.994;14.660;2023-04-07T06:44:04;97701.91;;;11.81;35.72
71915;BME280;60387;49.994;14.660;2023-04-07T06:46:37;97695.22;;;11.87;35.77
71915;BME280;60387;49.994;14.660;2023-04-07T06:49:11;97712.88;;;11.98;35.56
71915;BME280;60387;49.994;14.660;2023-04-07T06:51:44;97705.59;;;12.07;35.43
71915;BME280;60387;49.994;14.660;2023-04-07T06:54:17;97705.59;;;12.07;35.13
71915;BME280;60387;49.994;14.660;2023-04-07T06:56:51;97698.56;;;12.06;34.82
71915;BME280;60387;49.994;14.660;2023-04-07T06:59:24;97701.75;;;12.08;35.00
71915;BME280;60387;49.994;14.660;2023-04-07T07:01:57;97708.78;;;12.09;34.75
71915;BME280;60387;49.994;14.660;2023-04-07T07:04:31;97704.78;;;12.06;35.00
71915;BME280;60387;49.994;14.660;2023-04-07T07:07:04;97698.97;;;11.99;35.04
71915;BME280;60387;49.994;14.660;2023-04-07T07:09:37;97703.75;;;11.94;34.43
71915;BME280;60387;49.994;14.660;2023-04-07T07:12:10;97702.44;;;11.91;34.83
71915;BME280;60387;49.994;14.660;2023-04-07T07:14:44;97701.47;;;11.87;35.22
71915;BME280;60387;49.994;14.660;2023-04-07T07:17:17;97696.47;;;11.81;34.97
71915;BME280;60387;49.994;14.660;2023-04-07T07:19:50;97703.38;;;11.87;35.00
71915;BME280;60387;49.994;14.660;2023-04-07T07:22:24;97694.09;;;11.88;35.37
71915;BME280;60387;49.994;14.660;2023-04-07T07:24:57;97705.81;;;11.97;35.39
71915;BME280;60387;49.994;14.660;2023-04-07T07:27:30;97710.84;;;12.03;35.19
71915;BME280;60387;49.994;14.660;2023-04-07T07:30:05;97716.63;;;12.10;35.17
71915;BME280;60387;49.994;14.660;2023-04-07T07:32:39;97717.16;;;12.21;34.81
71915;BME280;60387;49.994;14.660;2023-04-07T07:35:13;97715.09;;;12.26;34.78
71915;BME280;60387;49.994;14.660;2023-04-07T07:37:46;97726.78;;;12.27;34.83
71915;BME280;60387;49.994;14.660;2023-04-07T07:40:20;97727.75;;;12.31;34.75
71915;BME280;60387;49.994;14.660;2023-04-07T07:42:53;97713.06;;;12.32;34.80
71915;BME280;60387;49.994;14.660;2023-04-07T07:45:26;97722.91;;;12.50;34.79
71915;BME280;60387;49.994;14.660;2023-04-07T07:48:00;97730.13;;;12.63;34.68
71915;BME280;60387;49.994;14.660;2023-04-07T07:50:33;97731.44;;;12.73;34.35
71915;BME280;60387;49.994;14.660;2023-04-07T07:53:06;97726.34;;;12.80;34.27
71915;BME280;60387;49.994;14.660;2023-04-07T07:55:40;97727.34;;;12.84;34.18
71915;BME280;60387;49.994;14.660;2023-04-07T07:58:13;97728.13;;;12.85;33.86
71915;BME280;60387;49.994;14.660;2023-04-07T08:00:49;97727.81;;;12.86;33.77
71915;BME280;60387;49.994;14.660;2023-04-07T08:03:23;97728.94;;;12.85;33.80
71915;BME280;60387;49.994;14.660;2023-04-07T08:05:56;97730.06;;;12.93;34.36
71915;BME280;60387;49.994;14.660;2023-04-07T08:08:29;97730.75;;;12.98;34.00
71915;BME280;60387;49.994;14.660;2023-04-07T08:11:02;97734.94;;;13.04;34.01
71915;BME280;60387;49.994;14.660;2023-04-07T08:13:36;97743.44;;;13.11;33.45
71915;BME280;60387;49.994;14.660;2023-04-07T08:16:09;97745.03;;;13.12;33.34
71915;BME280;60387;49.994;14.660;2023-04-07T08:18:42;97736.06;;;13.12;33.44
71915;BME280;60387;49.994;14.660;2023-04-07T08:21:16;97735.25;;;13.03;33.26
71915;BME280;60387;49.994;14.660;2023-04-07T08:23:49;97728.03;;;12.98;33.38
71915;BME280;60387;49.994;14.660;2023-04-07T08:26:23;97726.44;;;12.97;33.47
71915;BME280;60387;49.994;14.660;2023-04-07T08:28:56;97732.69;;;12.98;33.31
71915;BME280;60387;49.994;14.660;2023-04-07T08:31:29;97732.16;;;12.87;33.44
71915;BME280;60387;49.994;14.660;2023-04-07T08:34:03;97730.38;;;12.83;33.64
71915;BME280;60387;49.994;14.660;2023-04-07T08:36:36;97734.63;;;12.67;33.14
71915;BME280;60387;49.994;14.660;2023-04-07T08:39:09;97724.53;;;12.59;33.45
71915;BME280;60387;49.994;14.660;2023-04-07T08:41:43;97728.53;;;12.62;33.41
71915;BME280;60387;49.994;14.660;2023-04-07T08:44:20;97735.91;;;12.61;33.23
71915;BME280;60387;49.994;14.660;2023-04-07T08:46:56;97732.56;;;12.64;32.88
71915;BME280;60387;49.994;14.660;2023-04-07T08:49:31;97732.25;;;12.66;32.64
71915;BME280;60387;49.994;14.660;2023-04-07T08:52:08;97736.41;;;12.72;33.02
71915;BME280;60387;49.994;14.660;2023-04-07T08:54:43;97738.94;;;12.60;32.34
71915;BME280;60387;49.994;14.660;2023-04-07T08:57:16;97738.66;;;12.39;32.55
71915;BME280;60387;49.994;14.660;2023-04-07T08:59:50;97735.78;;;12.36;32.52
71915;BME280;60387;49.994;14.660;2023-04-07T09:02:23;97739.59;;;12.35;32.38
71915;BME280;60387;49.994;14.660;2023-04-07T09:04:57;97739.34;;;12.23;33.17
71915;BME280;60387;49.994;14.660;2023-04-07T09:07:31;97739.22;;;12.19;33.25
71915;BME280;60387;49.994;14.660;2023-04-07T09:10:06;97729.31;;;12.23;33.10
71915;BME280;60387;49.994;14.660;2023-04-07T09:12:39;97734.34;;;12.38;33.49
71915;BME280;60387;49.994;14.660;2023-04-07T09:15:13;97738.38;;;12.49;33.35
71915;BME280;60387;49.994;14.660;2023-04-07T09:17:46;97719.72;;;12.56;32.96
71915;BME280;60387;49.994;14.660;2023-04-07T09:20:20;97732.50;;;12.56;32.56
71915;BME280;60387;49.994;14.660;2023-04-07T09:22:53;97721.81;;;12.59;32.59
71915;BME280;60387;49.994;14.660;2023-04-07T09:25:27;97724.53;;;12.59;32.29
71915;BME280;60387;49.994;14.660;2023-04-07T09:28:02;97723.75;;;12.67;32.14
71915;BME280;60387;49.994;14.660;2023-04-07T09:30:36;97723.66;;;12.80;32.42
71915;BME280;60387;49.994;14.660;2023-04-07T09:33:15;97718.63;;;12.96;31.75
71915;BME280;60387;49.994;14.660;2023-04-07T09:35:51;97722.94;;;13.05;31.58
71915;BME280;60387;49.994;14.660;2023-04-07T09:38:32;97723.75;;;13.14;31.30
71915;BME280;60387;49.994;14.660;2023-04-07T09:41:10;97716.75;;;13.22;31.34
71915;BME280;60387;49.994;14.660;2023-04-07T09:43:45;97709.41;;;13.31;31.53
71915;BME280;60387;49.994;14.660;2023-04-07T09:46:18;97705.25;;;13.42;30.99
71915;BME280;60387;49.994;14.660;2023-04-07T09:49:01;97713.88;;;13.44;31.09
71915;BME280;60387;49.994;14.660;2023-04-07T09:51:34;97702.53;;;13.33;30.62
71915;BME280;60387;49.994;14.660;2023-04-07T09:54:08;97714.84;;;13.31;30.94
71915;BME280;60387;49.994;14.660;2023-04-07T09:56:41;97707.00;;;13.29;31.32
71915;BME280;60387;49.994;14.660;2023-04-07T09:59:15;97710.81;;;13.37;30.77
71915;BME280;60387;49.994;14.660;2023-04-07T10:01:49;97711.16;;;13.44;31.00
71915;BME280;60387;49.994;14.660;2023-04-07T10:04:25;97711.31;;;13.47;31.17
71915;BME280;60387;49.994;14.660;2023-04-07T10:06:59;97712.44;;;13.46;30.91
71915;BME280;60387;49.994;14.660;2023-04-07T10:09:32;97714.69;;;13.44;31.04
71915;BME280;60387;49.994;14.660;2023-04-07T10:12:06;97713.53;;;13.37;30.70
71915;BME280;60387;49.994;14.660;2023-04-07T10:14:39;97706.03;;;13.25;30.46
71915;BME280;60387;49.994;14.660;2023-04-07T10:17:14;97712.28;;;13.17;30.69
71915;BME280;60387;49.994;14.660;2023-04-07T10:19:49;97708.56;;;13.13;31.20
71915;BME280;60387;49.994;14.660;2023-04-07T10:22:24;97712.09;;;13.22;31.07
71915;BME280;60387;49.994;14.660;2023-04-07T10:25:05;97701.88;;;13.36;31.18
71915;BME280;60387;49.994;14.660;2023-04-07T10:27:56;97708.47;;;13.52;31.03
71915;BME280;60387;49.994;14.660;2023-04-07T10:30:32;97700.91;;;13.66;30.21
71915;BME280;60387;49.994;14.660;2023-04-07T10:33:06;97697.88;;;13.76;30.58
71915;BME280;60387;49.994;14.660;2023-04-07T10:36:05;97703.47;;;13.88;30.17
71915;BME280;60387;49.994;14.660;2023-04-07T10:38:38;97696.72;;;13.94;30.13
71915;BME280;60387;49.994;14.660;2023-04-07T10:41:34;97692.53;;;14.05;30.25
71915;BME280;60387;49.994;14.660;2023-04-07T10:44:09;97700.38;;;14.15;30.38
71915;BME280;60387;49.994;14.660;2023-04-07T10:47:03;97690.91;;;14.30;29.95
71915;BME280;60387;49.994;14.660;2023-04-07T10:49:37;97687.50;;;14.41;30.11
71915;BME280;60387;49.994;14.660;2023-04-07T10:54:43;97693.63;;;14.67;29.78
71915;BME280;60387;49.994;14.660;2023-04-07T10:57:16;97690.91;;;14.67;29.48
71915;BME280;60387;49.994;14.660;2023-04-07T11:02:41;97696.63;;;14.45;29.72
71915;BME280;60387;49.994;14.660;2023-04-07T11:05:21;97692.38;;;14.02;29.35
71915;BME280;60387;49.994;14.660;2023-04-07T11:07:55;97691.09;;;13.99;29.46
71915;BME280;60387;49.994;14.660;2023-04-07T11:10:28;97692.25;;;13.90;29.72
71915;BME280;60387;49.994;14.660;2023-04-07T11:13:06;97687.59;;;13.90;30.07
71915;BME280;60387;49.994;14.660;2023-04-07T11:15:39;97694.63;;;13.91;29.88
71915;BME280;60387;49.994;14.660;2023-04-07T11:18:18;97690.16;;;13.95;29.57
71915;BME280;60387;49.994;14.660;2023-04-07T11:20:54;97684.38;;;13.97;29.84
71915;BME280;60387;49.994;14.660;2023-04-07T11:23:27;97687.75;;;14.02;29.70
71915;BME280;60387;49.994;14.660;2023-04-07T11:26:01;97681.50;;;14.02;29.27
71915;BME280;60387;49.994;14.660;2023-04-07T11:28:47;97685.47;;;14.21;29.75
71915;BME280;60387;49.994;14.660;2023-04-07T11:31:28;97684.34;;;14.22;29.06
71915;BME280;60387;49.994;14.660;2023-04-07T11:34:03;97691.69;;;14.30;29.15
71915;BME280;60387;49.994;14.660;2023-04-07T11:36:38;97690.41;;;14.36;29.67
71915;BME280;60387;49.994;14.660;2023-04-07T11:39:19;97690.47;;;14.57;30.01
71915;BME280;60387;49.994;14.660;2023-04-07T11:41:53;97684.75;;;14.79;29.98
71915;BME280;60387;49.994;14.660;2023-04-07T11:44:26;97686.41;;;15.00;28.99
71915;BME280;60387;49.994;14.660;2023-04-07T11:47:00;97678.09;;;15.17;28.94
71915;BME280;60387;49.994;14.660;2023-04-07T11:49:34;97684.75;;;15.37;28.87
71915;BME280;60387;49.994;14.660;2023-04-07T11:52:16;97687.81;;;15.35;28.28
71915;BME280;60387;49.994;14.660;2023-04-07T11:54:49;97691.00;;;15.58;28.62
71915;BME280;60387;49.994;14.660;2023-04-07T11:57:27;97688.94;;;15.75;28.98
71915;BME280;60387;49.994;14.660;2023-04-07T12:00:08;97689.19;;;15.82;28.25
71915;BME280;60387;49.994;14.660;2023-04-07T12:02:42;97662.78;;;15.86;28.84
71915;BME280;60387;49.994;14.660;2023-04-07T12:05:15;97674.81;;;16.06;28.03
71915;BME280;60387;49.994;14.660;2023-04-07T12:07:52;97678.13;;;16.11;28.28
71915;BME280;60387;49.994;14.660;2023-04-07T12:10:26;97666.94;;;16.04;28.04
71915;BME280;60387;49.994;14.660;2023-04-07T12:12:59;97677.63;;;15.97;27.73
71915;BME280;60387;49.994;14.660;2023-04-07T12:15:33;97661.91;;;15.94;28.05
71915;BME280;60387;49.994;14.660;2023-04-07T12:18:07;97665.34;;;16.03;28.27
71915;BME280;60387;49.994;14.660;2023-04-07T12:20:40;97662.94;;;16.02;28.01
71915;BME280;60387;49.994;14.660;2023-04-07T12:23:13;97666.03;;;16.00;27.86
71915;BME280;60387;49.994;14.660;2023-04-07T12:25:46;97660.44;;;15.97;28.15
71915;BME280;60387;49.994;14.660;2023-04-07T12:28:20;97669.13;;;15.78;28.20
71915;BME280;60387;49.994;14.660;2023-04-07T12:30:54;97671.00;;;15.66;28.15
71915;BME280;60387;49.994;14.660;2023-04-07T12:33:27;97683.16;;;15.36;28.19
71915;BME280;60387;49.994;14.660;2023-04-07T12:36:01;97681.41;;;15.02;28.81
71915;BME280;60387;49.994;14.660;2023-04-07T12:38:34;97668.78;;;14.31;28.72
71915;BME280;60387;49.994;14.660;2023-04-07T12:41:07;97671.13;;;14.41;29.57
71915;BME280;60387;49.994;14.660;2023-04-07T12:43:40;97669.06;;;14.38;29.69
71915;BME280;60387;49.994;14.660;2023-04-07T12:46:14;97672.72;;;14.51;30.05
71915;BME280;60387;49.994;14.660;2023-04-07T12:48:47;97677.44;;;14.71;29.85
71915;BME280;60387;49.994;14.660;2023-04-07T12:51:20;97673.16;;;14.90;29.98
71915;BME280;60387;49.994;14.660;2023-04-07T12:53:54;97667.91;;;15.06;29.69
71915;BME280;60387;49.994;14.660;2023-04-07T12:56:27;97673.50;;;15.09;29.38
71915;BME280;60387;49.994;14.660;2023-04-07T12:59:00;97676.50;;;15.16;29.47
71915;BME280;60387;49.994;14.660;2023-04-07T13:01:34;97659.16;;;15.21;29.60
71915;BME280;60387;49.994;14.660;2023-04-07T13:04:08;97668.88;;;15.30;29.58
71915;BME280;60387;49.994;14.660;2023-04-07T13:06:41;97670.88;;;15.42;29.79
71915;BME280;60387;49.994;14.660;2023-04-07T13:09:14;97673.44;;;15.47;29.03
71915;BME280;60387;49.994;14.660;2023-04-07T13:11:47;97673.28;;;15.43;28.64
71915;BME280;60387;49.994;14.660;2023-04-07T13:14:21;97672.25;;;15.27;28.45
71915;BME280;60387;49.994;14.660;2023-04-07T13:16:54;97674.19;;;15.27;29.09
71915;BME280;60387;49.994;14.660;2023-04-07T13:19:28;97672.13;;;15.24;29.09
71915;BME280;60387;49.994;14.660;2023-04-07T13:22:01;97673.72;;;15.04;28.62
71915;BME280;60387;49.994;14.660;2023-04-07T13:24:35;97673.72;;;14.75;29.12
71915;BME280;60387;49.994;14.660;2023-04-07T13:27:08;97679.22;;;14.67;28.94
71915;BME280;60387;49.994;14.660;2023-04-07T13:29:41;97678.78;;;14.56;29.90
71915;BME280;60387;49.994;14.660;2023-04-07T13:32:15;97676.19;;;14.60;30.07
71915;BME280;60387;49.994;14.660;2023-04-07T13:34:48;97672.50;;;14.64;30.03
71915;BME280;60387;49.994;14.660;2023-04-07T13:37:22;97669.59;;;14.32;30.57
71915;BME280;60387;49.994;14.660;2023-04-07T13:39:55;97670.09;;;14.08;30.85
71915;BME280;60387;49.994;14.660;2023-04-07T13:42:28;97676.19;;;14.05;31.01
71915;BME280;60387;49.994;14.660;2023-04-07T13:45:02;97654.16;;;13.64;31.72
71915;BME280;60387;49.994;14.660;2023-04-07T13:47:35;97663.94;;;13.31;32.00